Time;durP1;ratioP1;P1;durP2;ratioP2;P2;SDS_P1;SDS_P2;PMS_P1;PMS_P2;Temp;Humidity;BMP_temperature;BMP_pressure;BME280_temperature;BME280_humidity;BME280_pressure;Samples;Min_cycle;Max_cycle;Signal;HPM_P1;HPM_P2
2021/08/27 00:00:44;;;;;;;2.78;1.00;;;;;;;19.82;57.38;101854.59;5073360;28;20060;-68
2021/08/27 00:03:09;;;;;;;1.90;0.82;;;;;;;19.85;56.92;101857.00;5073389;28;20055;-68
2021/08/27 00:05:34;;;;;;;1.58;0.80;;;;;;;19.82;56.76;101854.59;5073550;28;20024;-67
2021/08/27 00:08:00;;;;;;;1.73;0.80;;;;;;;19.81;56.99;101858.28;5074898;28;20028;-68
2021/08/27 00:13:48;;;;;;;2.00;0.75;;;;;;;19.82;56.25;101865.50;5077970;28;20089;-68
2021/08/27 00:16:14;;;;;;;1.88;1.10;;;;;;;19.79;57.33;101857.59;5073113;28;20020;-68
2021/08/27 00:18:39;;;;;;;2.45;0.90;;;;;;;19.92;56.57;101860.78;5073117;28;20024;-69
2021/08/27 00:21:04;;;;;;;2.53;0.90;;;;;;;19.79;56.16;101865.78;5070967;28;20025;-68
2021/08/27 00:23:30;;;;;;;1.90;0.88;;;;;;;19.70;57.24;101864.00;5076794;28;20104;-70
2021/08/27 00:25:55;;;;;;;2.95;0.90;;;;;;;19.73;57.50;101863.69;5072823;28;20066;-68
2021/08/27 00:28:21;;;;;;;2.88;0.85;;;;;;;19.77;56.76;101865.09;5073156;28;20024;-68
2021/08/27 00:30:46;;;;;;;2.10;0.70;;;;;;;19.78;57.08;101869.53;5073059;28;20016;-69
2021/08/27 00:33:11;;;;;;;2.80;0.85;;;;;;;19.75;57.22;101858.94;5072678;28;20028;-67
2021/08/27 00:35:37;;;;;;;2.90;1.15;;;;;;;19.76;56.22;101866.09;5079515;28;20029;-68
2021/08/27 00:38:02;;;;;;;2.30;0.68;;;;;;;19.68;57.38;101868.75;5080347;28;20069;-69
2021/08/27 00:43:50;;;;;;;3.00;0.93;;;;;;;19.74;56.47;101873.59;5073109;28;20060;-67
2021/08/27 00:46:16;;;;;;;0.95;0.60;;;;;;;19.73;56.17;101871.88;5059934;28;20029;-69
2021/08/27 00:48:41;;;;;;;2.28;0.77;;;;;;;19.78;57.16;101875.84;5052780;28;20381;-68
2021/08/27 00:51:07;;;;;;;2.50;0.75;;;;;;;19.70;57.44;101878.50;5056050;28;20016;-69
2021/08/27 00:53:35;;;;;;;0.95;0.70;;;;;;;19.71;56.78;101873.91;5056138;28;20033;-68
2021/08/27 00:56:02;;;;;;;3.08;1.10;;;;;;;19.74;57.52;101879.03;5038523;28;20039;-68
2021/08/27 00:58:27;;;;;;;2.22;0.85;;;;;;;19.69;56.46;101881.38;5056300;28;20136;-70
2021/08/27 01:00:53;;;;;;;2.25;0.70;;;;;;;19.69;56.02;101878.66;5056451;28;20525;-68
2021/08/27 01:03:20;;;;;;;1.95;0.82;;;;;;;19.71;56.94;101890.28;5056560;28;20025;-70
2021/08/27 01:06:25;;;;;;;4.13;1.05;;;;;;;19.68;57.00;101896.06;5063611;28;20047;-68
2021/08/27 01:09:02;;;;;;;3.47;0.90;;;;;;;19.72;57.01;101897.44;4994980;28;20078;-69
2021/08/27 01:11:52;;;;;;;2.95;0.85;;;;;;;19.65;56.36;101899.94;4995148;28;20026;-68
2021/08/27 01:17:45;;;;;;;2.67;0.88;;;;;;;19.60;57.00;101895.94;5011883;28;20085;-69
2021/08/27 01:21:01;;;;;;;1.23;0.82;;;;;;;19.61;57.34;101903.13;4994463;28;20069;-69
2021/08/27 01:23:40;;;;;;;3.00;0.60;;;;;;;19.57;57.34;101899.00;4978656;28;20038;-68
2021/08/27 01:26:06;;;;;;;2.08;0.90;;;;;;;19.55;56.62;101912.78;4994545;28;20034;-68
2021/08/27 01:28:36;;;;;;;2.30;0.82;;;;;;;19.62;57.22;101904.84;4994474;28;20030;-68
2021/08/27 01:31:22;;;;;;;2.80;0.82;;;;;;;19.59;57.47;101905.16;4994529;28;20046;-67
2021/08/27 01:33:59;;;;;;;1.98;1.02;;;;;;;19.61;57.69;101905.84;4999360;28;20085;-68
2021/08/27 01:36:28;;;;;;;2.75;0.77;;;;;;;19.57;56.85;101916.22;4994633;28;20036;-70
2021/08/27 01:38:53;;;;;;;1.60;0.63;;;;;;;19.61;57.74;101914.03;4994262;28;20090;-69
2021/08/27 01:41:20;;;;;;;1.50;0.60;;;;;;;19.58;57.41;101917.94;4994700;28;20030;-68
2021/08/27 01:43:48;;;;;;;1.42;0.63;;;;;;;19.61;56.67;101927.66;4994156;28;20058;-70
2021/08/27 01:46:15;;;;;;;2.10;0.95;;;;;;;19.58;57.10;101927.97;5069368;28;20039;-68
2021/08/27 01:48:41;;;;;;;0.80;0.40;;;;;;;19.59;57.63;101929.69;5084607;28;20036;-70
2021/08/27 01:51:08;;;;;;;2.00;0.85;;;;;;;19.53;56.84;101931.16;5075484;28;20017;-69
2021/08/27 01:53:34;;;;;;;1.25;0.60;;;;;;;19.59;57.03;101925.09;5075799;28;20430;-69
2021/08/27 01:56:02;;;;;;;0.57;0.40;;;;;;;19.54;57.87;101927.44;5075578;28;20029;-70
2021/08/27 01:58:30;;;;;;;3.75;0.90;;;;;;;19.57;57.66;101934.44;5068668;28;20048;-69
2021/08/27 02:00:57;;;;;;;1.58;0.52;;;;;;;19.58;57.77;101927.97;5073793;28;20107;-70
2021/08/27 02:03:36;;;;;;;1.58;0.50;;;;;;;19.56;57.38;101930.00;5083854;28;20008;-70
2021/08/27 02:06:02;;;;;;;3.85;1.10;;;;;;;19.48;58.07;101933.44;5075529;28;20028;-71
2021/08/27 02:08:30;;;;;;;2.28;0.60;;;;;;;19.58;57.07;101938.88;5075454;28;20021;-69
2021/08/27 02:10:56;;;;;;;2.00;0.63;;;;;;;19.56;56.76;101933.59;5075561;28;20023;-68
2021/08/27 02:13:22;;;;;;;1.52;0.60;;;;;;;19.49;57.00;101940.66;5075379;28;20378;-70
2021/08/27 02:15:49;;;;;;;2.63;0.80;;;;;;;19.48;57.63;101939.78;5078907;28;20019;-69
2021/08/27 02:18:15;;;;;;;2.65;0.50;;;;;;;19.47;58.17;101942.66;5097519;28;20037;-71
2021/08/27 02:20:41;;;;;;;2.75;0.65;;;;;;;19.55;57.96;101944.66;5075028;28;20502;-69
2021/08/27 02:23:07;;;;;;;2.05;0.73;;;;;;;19.51;57.63;101949.53;5075127;28;20032;-69
2021/08/27 02:25:35;;;;;;;1.63;0.63;;;;;;;19.42;57.06;101956.75;5075145;28;20056;-70
2021/08/27 02:28:02;;;;;;;2.38;0.60;;;;;;;19.44;57.79;101948.41;5074869;28;20032;-68
2021/08/27 02:30:30;;;;;;;2.50;0.75;;;;;;;19.48;56.81;101944.34;5075100;28;20020;-68
2021/08/27 02:32:59;;;;;;;2.53;1.05;;;;;;;19.52;57.32;101957.56;5079861;28;20017;-69
2021/08/27 02:35:26;;;;;;;2.92;1.02;;;;;;;19.44;57.79;101959.31;5075044;28;20028;-68
2021/08/27 02:37:52;;;;;;;2.10;0.60;;;;;;;19.45;57.48;101958.31;5074828;28;20024;-69
2021/08/27 02:40:17;;;;;;;1.13;0.45;;;;;;;19.47;57.88;101967.19;5074674;28;20457;-68
2021/08/27 02:42:43;;;;;;;1.20;0.63;;;;;;;19.46;57.52;101958.16;5074955;28;20020;-69
2021/08/27 02:45:09;;;;;;;1.98;0.52;;;;;;;19.50;57.81;101958.72;5074907;28;20646;-69
2021/08/27 02:47:43;;;;;;;1.88;0.43;;;;;;;19.61;57.98;101965.84;5086692;28;20485;-68
2021/08/27 02:50:12;;;;;;;1.60;0.52;;;;;;;19.53;58.07;101970.19;5074555;28;20017;-69
2021/08/27 02:52:45;;;;;;;1.35;0.52;;;;;;;19.46;57.85;101911.78;5074464;28;20381;-67
2021/08/27 02:55:17;;;;;;;1.58;0.63;;;;;;;19.53;56.44;101926.53;5074485;28;20596;-69
2021/08/27 02:57:48;;;;;;;3.60;0.93;;;;;;;19.58;56.99;101906.16;5074033;28;20048;-67
2021/08/27 03:00:15;;;;;;;1.83;0.88;;;;;;;19.59;56.36;102022.44;5074410;28;20105;-69
2021/08/27 03:02:42;;;;;;;1.30;0.77;;;;;;;19.44;57.18;101987.44;5074416;28;20066;-68
2021/08/27 03:05:12;;;;;;;3.78;1.10;;;;;;;19.43;57.17;101987.59;5078706;28;20027;-68
2021/08/27 03:07:43;;;;;;;1.60;0.45;;;;;;;19.49;57.68;101985.16;5074366;28;20017;-69
2021/08/27 03:10:37;;;;;;;3.67;0.93;;;;;;;19.46;57.33;101985.44;5074426;28;20040;-68
2021/08/27 03:13:04;;;;;;;3.63;1.25;;;;;;;19.42;57.90;101959.47;5073524;28;20043;-69
2021/08/27 03:15:41;;;;;;;1.67;0.40;;;;;;;19.40;57.18;101964.22;5073834;28;20024;-68
2021/08/27 03:18:31;;;;;;;2.22;0.50;;;;;;;19.52;57.63;101973.06;5076084;28;20017;-70
2021/08/27 03:21:21;;;;;;;1.88;0.63;;;;;;;19.42;56.58;101973.09;5090984;28;20028;-68
2021/08/27 03:23:49;;;;;;;1.13;0.60;;;;;;;19.40;57.14;101953.31;5073901;28;20020;-69
2021/08/27 03:26:21;;;;;;;1.40;0.55;;;;;;;19.51;56.56;101966.75;5073722;28;20025;-68
2021/08/27 03:28:51;;;;;;;1.73;0.52;;;;;;;19.50;57.03;101970.50;5073741;28;20428;-69
2021/08/27 03:31:21;;;;;;;1.17;0.50;;;;;;;19.50;56.37;101967.78;5075546;28;20024;-67
2021/08/27 03:33:47;;;;;;;1.88;0.68;;;;;;;19.48;57.00;101969.78;5073652;28;20029;-68
2021/08/27 03:36:12;;;;;;;3.60;0.80;;;;;;;19.49;56.72;101974.25;5073944;28;20097;-67
2021/08/27 03:38:38;;;;;;;1.10;0.40;;;;;;;19.46;56.26;101974.50;5073643;28;20055;-69
2021/08/27 03:41:04;;;;;;;1.73;0.57;;;;;;;19.51;55.90;101977.66;5073566;28;20615;-68
2021/08/27 03:43:31;;;;;;;2.42;0.82;;;;;;;19.46;55.82;101969.06;5073707;28;20114;-67
2021/08/27 03:45:59;;;;;;;0.88;0.40;;;;;;;19.52;55.67;101973.94;5063011;28;20107;-68
2021/08/27 03:48:28;;;;;;;1.15;0.30;;;;;;;19.47;56.36;101976.22;5061024;28;20056;-67
2021/08/27 03:50:54;;;;;;;2.10;0.45;;;;;;;19.47;55.99;101975.38;5072441;28;20072;-69
2021/08/27 03:54:00;;;;;;;0.90;0.40;;;;;;;19.47;56.74;101978.97;5079550;28;20038;-69
2021/08/27 03:56:26;;;;;;;0.85;0.35;;;;;;;19.43;56.57;101974.81;5053573;28;20036;-70
2021/08/27 03:58:52;;;;;;;1.20;0.47;;;;;;;19.43;57.30;101980.28;5052939;28;20048;-68
2021/08/27 04:01:21;;;;;;;1.27;0.45;;;;;;;19.44;56.16;101987.44;5053412;28;20024;-69
2021/08/27 04:03:46;;;;;;;1.13;0.40;;;;;;;20.38;54.77;101981.69;5058972;28;20071;-68
2021/08/27 04:06:11;;;;;;;3.13;0.68;;;;;;;20.63;54.10;101978.16;5053199;28;20025;-66
2021/08/27 04:08:39;;;;;;;0.68;0.20;;;;;;;20.85;54.11;101970.47;5053194;28;20035;-69
2021/08/27 04:11:06;;;;;;;1.00;0.38;;;;;;;20.98;53.45;101970.88;5052816;28;20021;-67
2021/08/27 04:13:32;;;;;;;1.17;0.20;;;;;;;21.17;52.51;101978.88;5053028;28;20083;-67
2021/08/27 04:15:58;;;;;;;1.30;0.22;;;;;;;21.24;53.71;101969.00;5053259;28;20059;-68
2021/08/27 04:18:23;;;;;;;0.35;0.22;;;;;;;21.38;53.54;101978.47;5066387;28;20028;-66
2021/08/27 04:21:47;;;;;;;1.20;0.50;;;;;;;21.47;53.50;101984.81;5077117;28;20008;-68
2021/08/27 04:24:13;;;;;;;0.45;0.20;;;;;;;21.50;53.52;101979.91;5086800;28;20135;-68
2021/08/27 04:26:39;;;;;;;1.92;0.40;;;;;;;21.55;53.98;101982.13;5063041;28;20107;-69
2021/08/27 04:29:05;;;;;;;1.05;0.20;;;;;;;21.57;53.69;101985.56;5072816;28;20031;-68
2021/08/27 04:31:30;;;;;;;0.68;0.30;;;;;;;21.65;54.39;101985.56;5077218;28;20194;-69
2021/08/27 04:33:56;;;;;;;1.08;0.30;;;;;;;21.64;54.96;101983.88;5069289;28;20052;-68
2021/08/27 04:36:22;;;;;;;0.32;0.30;;;;;;;21.71;54.51;101984.94;5070042;28;20475;-67
2021/08/27 04:38:48;;;;;;;0.75;0.50;;;;;;;21.71;53.83;101989.56;5049987;28;20021;-69
2021/08/27 04:41:14;;;;;;;2.75;0.60;;;;;;;21.77;54.91;101997.94;5052779;28;20421;-68
2021/08/27 04:43:39;;;;;;;1.23;0.30;;;;;;;21.83;54.74;101996.41;5072872;28;20032;-69
2021/08/27 04:46:05;;;;;;;1.60;0.52;;;;;;;21.82;55.54;102000.16;5062169;28;20025;-69
2021/08/27 04:48:31;;;;;;;0.60;0.10;;;;;;;21.82;55.15;102001.03;5053059;28;20425;-68
2021/08/27 04:50:56;;;;;;;1.75;0.40;;;;;;;21.81;55.42;102003.94;5052725;28;20021;-69
2021/08/27 04:53:21;;;;;;;1.80;0.25;;;;;;;21.87;55.23;102009.63;5071275;28;20020;-69
2021/08/27 04:55:47;;;;;;;3.97;0.70;;;;;;;21.86;55.06;102013.38;5060888;28;20037;-67
2021/08/27 04:58:12;;;;;;;1.48;0.30;;;;;;;21.91;54.86;102013.72;5052496;28;20435;-69
2021/08/27 05:00:37;;;;;;;0.95;0.30;;;;;;;21.98;54.92;102010.31;5052395;28;20032;-68
2021/08/27 05:03:03;;;;;;;0.68;0.20;;;;;;;21.95;55.65;102011.50;5052642;28;20477;-68
2021/08/27 05:05:30;;;;;;;0.82;0.22;;;;;;;21.99;56.26;102014.75;5052415;28;20036;-69
2021/08/27 05:07:55;;;;;;;1.35;0.52;;;;;;;21.99;55.80;102022.97;5052661;28;20390;-68
2021/08/27 05:10:22;;;;;;;0.75;0.47;;;;;;;21.97;56.09;102019.56;5054795;28;20061;-69
2021/08/27 05:12:47;;;;;;;2.55;0.60;;;;;;;21.98;56.96;102015.78;5052550;28;20021;-68
2021/08/27 05:15:12;;;;;;;0.95;0.20;;;;;;;22.02;56.97;102022.66;5052540;28;20469;-68
2021/08/27 05:17:39;;;;;;;0.95;0.30;;;;;;;22.04;56.46;102026.09;5052807;28;20465;-69
2021/08/27 05:20:06;;;;;;;1.27;0.40;;;;;;;22.03;55.80;102029.84;5052125;28;20049;-68
2021/08/27 05:22:32;;;;;;;1.08;0.30;;;;;;;22.10;56.97;102034.50;5052519;28;20033;-69
2021/08/27 05:24:57;;;;;;;1.17;0.52;;;;;;;22.11;56.75;102038.13;5053908;28;20027;-65
2021/08/27 05:27:22;;;;;;;1.63;0.20;;;;;;;22.00;56.39;102032.91;5052282;28;20036;-66
2021/08/27 05:29:48;;;;;;;0.52;0.47;;;;;;;22.09;56.99;102034.69;5071294;28;20103;-67
2021/08/27 05:32:13;;;;;;;1.63;0.30;;;;;;;22.12;57.46;102035.19;5072156;28;20028;-67
2021/08/27 05:34:39;;;;;;;1.25;0.30;;;;;;;22.15;57.58;102031.25;5072661;28;20469;-68
2021/08/27 05:37:04;;;;;;;1.85;0.47;;;;;;;22.13;56.53;102025.97;5072249;28;20608;-67
2021/08/27 05:39:36;;;;;;;1.15;0.28;;;;;;;22.07;55.63;102023.03;5086593;28;20034;-66
2021/08/27 05:42:02;;;;;;;0.32;0.22;;;;;;;22.12;56.84;102034.34;5075849;28;20519;-69
2021/08/27 05:44:29;;;;;;;0.85;0.30;;;;;;;22.09;56.66;102030.06;5075953;28;20033;-67
2021/08/27 05:46:55;;;;;;;1.95;0.75;;;;;;;22.16;57.08;102032.97;5057458;28;20028;-68
2021/08/27 05:49:21;;;;;;;1.65;0.20;;;;;;;22.21;58.70;102045.16;5055835;28;20377;-68
2021/08/27 05:51:46;;;;;;;1.13;0.40;;;;;;;22.20;57.20;102042.59;5072875;28;20357;-67
2021/08/27 05:54:11;;;;;;;0.50;0.30;;;;;;;22.14;57.09;102038.63;5076354;28;20151;-68
2021/08/27 05:56:37;;;;;;;1.13;0.40;;;;;;;22.18;57.64;102045.50;5075509;28;20499;-66
2021/08/27 05:59:03;;;;;;;1.35;0.50;;;;;;;22.14;56.93;102048.72;5075663;28;20036;-67
2021/08/27 06:01:28;;;;;;;1.88;0.40;;;;;;;22.24;57.42;102054.94;5075678;28;20051;-68
2021/08/27 06:03:53;;;;;;;0.93;0.22;;;;;;;22.20;56.76;102048.06;5075621;28;20028;-67
2021/08/27 06:06:19;;;;;;;0.65;0.13;;;;;;;22.18;57.95;102048.25;5075561;28;20043;-68
2021/08/27 06:08:44;;;;;;;0.55;0.17;;;;;;;22.24;57.23;102054.06;5085057;28;20076;-66
2021/08/27 06:11:09;;;;;;;0.50;0.20;;;;;;;22.25;58.00;102048.41;5077009;28;20020;-67
2021/08/27 06:13:35;;;;;;;0.38;0.20;;;;;;;22.26;58.52;102058.34;5069566;28;20020;-68
2021/08/27 06:16:01;;;;;;;0.82;0.10;;;;;;;22.28;57.31;102061.78;5068337;28;20492;-67
2021/08/27 06:18:26;;;;;;;2.58;0.40;;;;;;;22.27;57.88;102054.59;5055375;28;20060;-66
2021/08/27 06:20:52;;;;;;;0.82;0.20;;;;;;;22.22;57.53;102056.97;5061788;28;20044;-67
2021/08/27 06:23:18;;;;;;;0.63;0.25;;;;;;;22.24;57.07;102054.94;5057779;28;20028;-63
2021/08/27 06:25:44;;;;;;;1.17;0.43;;;;;;;22.25;57.14;102051.16;5060207;28;20032;-67
2021/08/27 06:28:09;;;;;;;1.92;0.45;;;;;;;22.23;57.29;102053.22;5055137;28;20052;-67
2021/08/27 06:30:35;;;;;;;1.65;0.40;;;;;;;22.33;57.57;102053.91;5069741;28;20066;-66
2021/08/27 06:33:01;;;;;;;1.38;0.32;;;;;;;22.37;58.24;102065.41;5073689;28;20033;-68
2021/08/27 06:35:26;;;;;;;1.17;0.43;;;;;;;22.37;57.82;102049.81;5072209;28;20037;-66
2021/08/27 06:40:36;;;;;;;0.20;0.10;;;;;;;22.34;57.65;102058.38;5069922;28;20122;-68
2021/08/27 06:43:01;;;;;;;0.73;0.30;;;;;;;22.38;57.26;102059.75;5064758;28;20508;-67
2021/08/27 06:45:27;;;;;;;0.55;0.10;;;;;;;22.35;57.96;102061.97;5055792;28;20039;-68
2021/08/27 06:47:54;;;;;;;0.43;0.20;;;;;;;22.35;57.17;102067.47;5067484;28;20400;-66
2021/08/27 06:50:20;;;;;;;1.05;0.20;;;;;;;22.35;58.24;102068.31;5059616;28;20016;-67
2021/08/27 06:52:46;;;;;;;1.55;0.47;;;;;;;22.35;57.90;102068.31;5069362;28;20021;-66
2021/08/27 06:55:12;;;;;;;1.38;0.20;;;;;;;22.36;58.34;102075.50;5063720;28;20648;-66
2021/08/27 06:57:37;;;;;;;0.40;0.20;;;;;;;22.35;58.27;102073.78;5061154;28;20049;-67
2021/08/27 07:00:03;;;;;;;0.90;0.30;;;;;;;22.32;58.53;102074.09;5060037;28;20795;-66
2021/08/27 07:02:29;;;;;;;0.55;0.20;;;;;;;22.38;57.97;102073.44;5059055;28;20060;-68
2021/08/27 07:04:54;;;;;;;1.13;0.32;;;;;;;22.43;57.94;102076.53;5055026;28;20059;-67
2021/08/27 07:07:21;;;;;;;1.65;0.20;;;;;;;22.41;58.10;102073.09;5070972;28;20685;-67
2021/08/27 07:09:46;;;;;;;0.80;0.30;;;;;;;22.41;58.39;102073.09;5056045;28;20028;-68
2021/08/27 07:12:13;;;;;;;4.03;0.68;;;;;;;22.40;57.90;102076.03;5069854;28;20024;-67
2021/08/27 07:14:39;;;;;;;0.80;0.30;;;;;;;22.40;58.06;102071.41;5062581;28;20109;-67
2021/08/27 07:17:05;;;;;;;1.92;0.60;;;;;;;22.45;58.21;102077.22;5074294;28;20021;-65
2021/08/27 07:19:31;;;;;;;1.33;0.43;;;;;;;22.43;58.13;102076.53;5059372;28;20068;-64
2021/08/27 07:21:56;;;;;;;0.52;0.25;;;;;;;22.38;58.21;102081.66;5054951;28;20057;-66
2021/08/27 07:24:21;;;;;;;1.67;0.20;;;;;;;22.39;58.03;102075.16;5069788;28;20115;-65
2021/08/27 07:26:47;;;;;;;0.45;0.20;;;;;;;22.40;57.64;102071.41;5077841;28;20416;-66
2021/08/27 07:29:12;;;;;;;0.93;0.28;;;;;;;22.45;57.72;102079.09;5072772;28;20396;-68
2021/08/27 07:31:37;;;;;;;1.25;0.50;;;;;;;22.46;58.29;102081.66;5073356;28;20453;-67
2021/08/27 07:34:03;;;;;;;1.25;0.32;;;;;;;22.43;57.17;102084.75;5058795;28;20385;-68
2021/08/27 07:36:28;;;;;;;0.80;0.20;;;;;;;22.45;57.95;102079.97;5071204;28;20021;-67
2021/08/27 07:38:53;;;;;;;2.97;0.82;;;;;;;22.48;58.39;102085.09;5063019;28;20470;-66
2021/08/27 07:41:19;;;;;;;1.05;0.20;;;;;;;22.47;58.51;102077.91;5064464;28;20035;-68
2021/08/27 07:43:44;;;;;;;0.98;0.20;;;;;;;22.45;57.24;102095.53;5066596;28;21333;-66
2021/08/27 07:46:10;;;;;;;1.02;0.68;;;;;;;22.51;58.12;102083.94;5056923;28;20029;-66
2021/08/27 07:48:36;;;;;;;0.70;0.20;;;;;;;22.50;57.30;102077.56;5074125;28;20040;-66
2021/08/27 07:51:02;;;;;;;0.77;0.28;;;;;;;22.49;57.90;102080.47;5059991;28;20436;-66
2021/08/27 07:53:28;;;;;;;2.58;0.32;;;;;;;22.52;57.78;102075.53;5059773;28;20012;-67
2021/08/27 07:55:53;;;;;;;2.35;0.50;;;;;;;22.48;58.66;102079.59;5060508;28;20103;-67
2021/08/27 07:58:18;;;;;;;1.30;0.30;;;;;;;22.48;57.89;102079.59;5061488;28;20060;-66
2021/08/27 08:00:44;;;;;;;0.80;0.20;;;;;;;22.50;57.70;102088.50;5066216;28;20354;-68
2021/08/27 08:03:10;;;;;;;2.47;0.40;;;;;;;22.52;57.73;102088.38;5064570;28;20452;-67
2021/08/27 08:05:35;;;;;;;1.00;0.30;;;;;;;22.55;58.30;102098.16;5065904;28;20050;-70
2021/08/27 08:08:01;;;;;;;1.55;0.50;;;;;;;22.52;57.32;102097.47;5072361;28;20049;-68
2021/08/27 08:10:26;;;;;;;0.47;0.20;;;;;;;22.55;57.68;102100.88;5076688;28;20072;-66
2021/08/27 08:12:51;;;;;;;1.25;0.60;;;;;;;22.50;58.94;102099.47;5072722;28;20102;-69
2021/08/27 08:15:20;;;;;;;0.82;0.20;;;;;;;22.54;57.56;102093.69;5080587;28;20020;-69
2021/08/27 08:18:36;;;;;;;2.53;0.30;;;;;;;22.52;58.09;102099.34;5087075;28;20031;-69
2021/08/27 08:21:05;;;;;;;0.73;0.40;;;;;;;22.58;57.20;102103.28;5054178;28;20043;-67
2021/08/27 08:23:31;;;;;;;1.20;0.30;;;;;;;22.58;58.80;102106.03;5059640;28;20453;-68
2021/08/27 08:25:56;;;;;;;0.70;0.32;;;;;;;22.56;58.18;102108.06;5076037;28;20082;-68
2021/08/27 08:28:22;;;;;;;1.38;0.40;;;;;;;22.60;58.31;102103.97;5073115;28;20399;-69
2021/08/27 08:30:49;;;;;;;2.88;0.30;;;;;;;22.60;58.29;102109.44;5067927;28;20051;-68
2021/08/27 08:33:14;;;;;;;0.45;0.20;;;;;;;22.57;57.80;102115.28;5072443;28;20040;-69
2021/08/27 08:35:39;;;;;;;0.57;0.30;;;;;;;22.58;58.27;102116.97;5072283;28;20033;-70
2021/08/27 08:38:05;;;;;;;1.23;0.30;;;;;;;22.56;57.94;102114.41;5072391;28;20461;-69
2021/08/27 08:40:30;;;;;;;1.45;0.63;;;;;;;22.57;57.59;102120.75;5075196;28;20503;-69
2021/08/27 08:42:56;;;;;;;1.13;0.30;;;;;;;22.56;58.51;102119.03;5072863;28;20021;-69
2021/08/27 08:45:22;;;;;;;0.77;0.30;;;;;;;22.57;58.38;102124.34;5072045;28;20029;-68
2021/08/27 08:47:49;;;;;;;0.40;0.20;;;;;;;22.58;58.32;102117.84;5057566;28;20025;-69
2021/08/27 08:50:18;;;;;;;1.77;0.40;;;;;;;22.56;58.41;102124.53;5052951;28;20507;-67
2021/08/27 08:52:46;;;;;;;1.88;0.47;;;;;;;22.58;58.10;102127.94;5059602;28;20094;-70
2021/08/27 08:55:12;;;;;;;0.88;0.35;;;;;;;22.55;58.16;102128.28;5047855;28;20035;-69
2021/08/27 08:57:37;;;;;;;0.80;0.40;;;;;;;22.58;58.66;102128.81;5039563;28;20042;-69
2021/08/27 09:00:03;;;;;;;1.98;0.43;;;;;;;22.62;58.18;102129.31;5031914;28;20580;-69
2021/08/27 09:02:28;;;;;;;1.63;0.20;;;;;;;22.64;58.08;102130.84;5032801;28;20037;-68
2021/08/27 09:04:54;;;;;;;0.65;0.20;;;;;;;22.61;58.29;102130.34;5030100;28;20025;-68
2021/08/27 09:07:19;;;;;;;0.32;0.30;;;;;;;22.61;58.56;102131.19;5031604;28;20029;-68
2021/08/27 09:09:45;;;;;;;1.13;0.40;;;;;;;22.62;58.00;102134.78;5032838;28;20032;-68
2021/08/27 09:12:17;;;;;;;2.67;0.82;;;;;;;22.64;57.09;102136.34;5041021;28;20177;-70
2021/08/27 09:18:09;;;;;;;0.88;0.20;;;;;;;22.64;57.07;102143.72;5036632;28;20480;-69
2021/08/27 09:20:35;;;;;;;1.08;0.63;;;;;;;22.60;57.29;102139.59;5035562;28;20029;-68
2021/08/27 09:23:05;;;;;;;0.98;0.38;;;;;;;22.64;57.37;102140.97;5023972;28;20036;-69
2021/08/27 09:25:36;;;;;;;3.03;0.50;;;;;;;22.66;58.07;102147.13;5040597;28;20100;-69
2021/08/27 09:28:13;;;;;;;0.52;0.20;;;;;;;22.66;58.68;102142.50;5024270;28;20025;-70
2021/08/27 09:30:39;;;;;;;0.93;0.40;;;;;;;22.64;58.15;102149.19;5019512;28;20087;-69
2021/08/27 09:33:20;;;;;;;1.10;0.30;;;;;;;22.64;57.44;102149.19;5033383;28;20060;-67
2021/08/27 09:36:04;;;;;;;1.27;0.43;;;;;;;22.62;58.62;102149.34;5036157;28;20030;-69
2021/08/27 09:38:34;;;;;;;1.67;0.55;;;;;;;22.66;58.70;102152.63;5032664;28;20030;-69
2021/08/27 09:41:07;;;;;;;1.08;0.28;;;;;;;22.59;57.62;102157.06;5017835;28;20486;-69
2021/08/27 09:43:50;;;;;;;0.60;0.30;;;;;;;22.66;57.87;102155.34;5016257;28;20033;-69
2021/08/27 09:46:32;;;;;;;1.80;0.30;;;;;;;22.67;57.16;102154.31;5018259;28;20061;-68
2021/08/27 09:48:59;;;;;;;1.23;0.73;;;;;;;22.65;57.91;102164.59;5035930;28;20466;-69
2021/08/27 09:51:43;;;;;;;1.10;0.35;;;;;;;22.63;57.93;102163.91;5016239;28;20029;-70
2021/08/27 09:54:09;;;;;;;1.95;0.30;;;;;;;22.66;58.24;102160.84;5017804;28;20537;-68
2021/08/27 09:56:46;;;;;;;0.93;0.28;;;;;;;22.63;57.63;102164.78;5016159;28;20065;-69
2021/08/27 09:59:13;;;;;;;0.50;0.30;;;;;;;22.70;58.38;102171.31;5027738;28;20091;-69
2021/08/27 10:01:46;;;;;;;0.70;0.20;;;;;;;22.66;58.24;102169.91;5035490;28;20025;-70
2021/08/27 10:04:12;;;;;;;1.13;0.20;;;;;;;22.65;58.19;102172.84;5036612;28;20029;-69
2021/08/27 10:06:38;;;;;;;1.13;0.20;;;;;;;22.66;57.63;102169.91;5039269;28;20405;-69
2021/08/27 10:09:04;;;;;;;1.55;0.30;;;;;;;22.68;57.39;102167.03;5037278;28;20025;-69
2021/08/27 10:11:30;;;;;;;2.00;0.85;;;;;;;22.65;58.91;102157.25;5035695;28;20394;-69
2021/08/27 10:13:57;;;;;;;0.35;0.30;;;;;;;22.68;58.25;102167.03;5034975;28;20425;-69
2021/08/27 10:16:23;;;;;;;0.22;0.10;;;;;;;22.68;57.60;102165.16;5034438;28;20029;-69
2021/08/27 10:18:48;;;;;;;1.17;0.40;;;;;;;22.66;58.08;102163.56;5034409;28;20029;-69
2021/08/27 10:21:13;;;;;;;1.40;0.47;;;;;;;22.68;58.91;102164.28;5036637;28;20029;-69
2021/08/27 10:23:39;;;;;;;1.20;0.63;;;;;;;22.69;58.20;102163.28;5034572;28;20022;-68
2021/08/27 10:26:16;;;;;;;2.22;0.30;;;;;;;22.65;58.16;102168.19;5032693;28;20028;-70
2021/08/27 10:28:43;;;;;;;0.85;0.45;;;;;;;22.64;57.16;102157.41;5034153;28;20033;-69
2021/08/27 10:31:09;;;;;;;0.70;0.35;;;;;;;22.68;57.67;102154.19;5034935;28;20092;-68
2021/08/27 10:36:57;;;;;;;0.47;0.30;;;;;;;22.64;58.64;102162.91;5045087;28;20072;-69
2021/08/27 10:39:33;;;;;;;2.53;0.88;;;;;;;22.67;58.16;102165.28;5035051;28;20481;-69
2021/08/27 10:41:59;;;;;;;0.70;0.25;;;;;;;22.67;57.39;102176.25;5034701;28;20087;-69
2021/08/27 10:44:47;;;;;;;1.42;0.40;;;;;;;22.69;58.34;102180.56;5034981;28;20025;-69
2021/08/27 10:47:14;;;;;;;1.40;0.30;;;;;;;22.70;57.65;102167.72;5016167;28;20061;-69
2021/08/27 10:50:00;;;;;;;0.88;0.15;;;;;;;22.68;59.36;102167.03;5014910;28;20022;-68
2021/08/27 10:52:37;;;;;;;1.02;0.30;;;;;;;22.71;58.26;102162.06;5014721;28;20093;-70
2021/08/27 10:55:02;;;;;;;0.43;0.30;;;;;;;22.70;58.67;102168.56;5014866;28;20038;-69
2021/08/27 10:57:28;;;;;;;1.05;0.25;;;;;;;22.70;57.23;102168.56;5028467;28;20045;-69
2021/08/27 11:00:03;;;;;;;1.08;0.30;;;;;;;22.63;57.45;102158.44;5054384;28;20121;-69
2021/08/27 11:02:28;;;;;;;0.82;0.30;;;;;;;22.74;58.48;102166.34;5073736;28;20032;-68
2021/08/27 11:04:55;;;;;;;1.40;0.32;;;;;;;22.70;58.33;102170.47;5080633;28;20051;-69
2021/08/27 11:07:40;;;;;;;1.17;0.30;;;;;;;22.75;58.10;102168.91;5097640;28;20059;-69
2021/08/27 11:10:13;;;;;;;0.60;0.40;;;;;;;22.72;58.38;102168.41;5080865;28;20036;-69
2021/08/27 11:12:39;;;;;;;0.45;0.20;;;;;;;22.70;58.43;102170.47;5074630;28;20052;-68
2021/08/27 11:15:26;;;;;;;0.95;0.30;;;;;;;22.66;58.85;102174.53;5075477;28;20063;-67
2021/08/27 11:18:20;;;;;;;1.33;0.60;;;;;;;22.71;58.00;102177.66;5074178;28;20378;-69
2021/08/27 11:20:47;;;;;;;0.70;0.28;;;;;;;22.73;58.62;102181.09;5072253;28;20021;-69
2021/08/27 11:23:13;;;;;;;1.35;0.40;;;;;;;22.68;58.34;102186.22;5059184;28;20104;-69
2021/08/27 11:25:56;;;;;;;2.53;0.50;;;;;;;22.70;58.10;102181.44;5054232;28;20082;-69
2021/08/27 11:28:24;;;;;;;2.53;0.20;;;;;;;22.68;58.73;102172.53;5055237;28;20060;-69
2021/08/27 11:31:03;;;;;;;2.10;0.28;;;;;;;22.68;58.34;102183.50;5056733;28;20028;-69
2021/08/27 11:33:40;;;;;;;3.70;0.30;;;;;;;22.65;58.23;102183.78;5053969;28;20021;-69
2021/08/27 11:36:06;;;;;;;1.25;0.20;;;;;;;22.73;57.21;102186.56;5053547;28;20058;-67
2021/08/27 11:38:32;;;;;;;0.70;0.22;;;;;;;22.71;58.38;102183.16;5054160;28;20107;-69
2021/08/27 11:41:00;;;;;;;0.50;0.20;;;;;;;22.71;58.47;102183.16;5080491;28;20029;-69
2021/08/27 11:43:44;;;;;;;1.45;0.40;;;;;;;22.71;58.24;102186.75;5073572;28;20480;-69
2021/08/27 11:46:27;;;;;;;0.90;0.20;;;;;;;22.70;57.72;102186.91;5073619;28;20381;-69
2021/08/27 11:49:04;;;;;;;0.63;0.13;;;;;;;22.70;58.50;102192.41;5056506;28;20147;-69
2021/08/27 11:51:45;;;;;;;1.02;0.38;;;;;;;22.72;58.48;102184.84;5053637;28;20452;-68